Flight Track Log - Related Links

Times and Time Zones

All times are in EDT time to prevent confusion due to time zone crossing. See the DAL1562 flight status page for this flight to view local times or setup timezone preferences in your user account.

Time Position Orientation Groundspeed Altitude Reporting Facility
EDT Latitude Longitude Course Direction KTS MPH feet Rate Location/Type
Thu 04:52:05 PM 39.8667 -75.2833 270° West 157 181 1,000  Level Philadelphia TRACON
Thu 04:54:00 PM 39.9036 -75.6143 288° West  Level FlightAware Approximate
Thu 04:54:28 PM 39.8528 -75.4786 265° West 253 291 7,800  Level New York Center
Thu 04:55:00 PM 39.9044 -75.7402 258° West  Level FlightAware Approximate
Thu 04:55:28 PM 39.8553 -75.5736 272° West 264 304 10,000  Level New York Center
Thu 04:56:00 PM 39.9001 -75.8699 270° West  Level FlightAware Approximate
Thu 04:56:29 PM 39.8636 -75.6742 276° West 273 314 10,200  Level New York Center
Thu 04:57:00 PM 39.9000 -76.0001 270° West  Level FlightAware Approximate
Thu 04:57:27 PM 39.8731 -75.7939 276° West 317 365 12,500  Level New York Center
Thu 04:58:28 PM 39.8850 -75.9056 278° West 345 397 14,800 2,066 Climbing New York Center
Thu 04:59:29 PM 39.8961 -76.0308 277° West 355 409 16,700 1,160 Climbing New York Center
Thu 05:00:27 PM 39.9083 -76.1781 276° West 366 421 17,100 605 Climbing New York Center
Thu 05:01:28 PM 39.9144 -76.3111 273° West 372 428 17,900 1,240 Climbing New York Center
Thu 05:02:28 PM 39.9150 -76.4331 270° West 372 428 19,600 1,736 Climbing New York Center
Thu 05:03:29 PM 39.9228 -76.5717 274° West 378 435 21,400 1,815 Climbing New York Center
Thu 05:04:27 PM 39.9283 -76.7131 273° West 383 441 23,200 1,714 Climbing New York Center
Thu 05:05:28 PM 39.9314 -76.8567 272° West 398 458 24,800 2,066 Climbing New York Center
Thu 05:06:29 PM 39.9367 -76.9953 273° West 403 464 27,400 2,182 Climbing New York Center
Thu 05:07:29 PM 39.9400 -77.1311 272° West 398 458 29,200 1,322 Climbing New York Center
Thu 05:08:27 PM 39.9661 -77.2636 284° West 387 445 30,000 312 Climbing New York Center
Thu 05:10:03 PM 40.0308 -77.4675 293° West 374 430 30,000  Level Cleveland Center
Thu 05:11:03 PM 40.0678 -77.5989 290° West 380 437 30,000  Level Cleveland Center
Thu 05:12:03 PM 40.1064 -77.7300 291° West 386 444 30,000  Level Cleveland Center
Thu 05:13:03 PM 40.1408 -77.8617 289° West 386 444 30,000  Level Cleveland Center
Thu 05:14:03 PM 40.1383 -78.0139 269° West 381 438 30,000  Level Cleveland Center
Thu 05:15:03 PM 40.1372 -78.1525 269° West 381 438 30,000  Level Cleveland Center
Thu 05:16:03 PM 40.1400 -78.2908 272° West 381 438 30,000  Level Cleveland Center
Thu 05:17:03 PM 40.1383 -78.4242 269° West 381 438 30,000  Level Cleveland Center
Thu 05:18:03 PM 40.1408 -78.5569 271° West 381 438 30,000  Level Cleveland Center
Thu 05:19:03 PM 40.1411 -78.6900 270° West 381 438 30,000  Level Cleveland Center
Thu 05:20:03 PM 40.1431 -78.8206 271° West 375 432 30,000  Level Cleveland Center
Thu 05:21:03 PM 40.1431 -78.9564 270° West 375 432 30,000  Level Cleveland Center
Thu 05:22:03 PM 40.1428 -79.0894 270° West 370 426 30,000  Level Cleveland Center
Thu 05:23:03 PM 40.1550 -79.2194 277° West 364 419 30,000  Level Cleveland Center
Thu 05:24:03 PM 40.1853 -79.3331 289° West 364 419 30,000  Level Cleveland Center
Thu 05:25:03 PM 40.2097 -79.4575 284° West 364 419 30,000  Level Cleveland Center
Thu 05:26:03 PM 40.2358 -79.5878 285° West 364 419 30,000  Level Cleveland Center
Thu 05:27:03 PM 40.2619 -79.7125 285° West 364 419 30,000  Level Cleveland Center
Thu 05:28:03 PM 40.2878 -79.8400 285° West 354 407 30,000  Level Cleveland Center
Thu 05:29:03 PM 40.3156 -79.9650 286° West 354 407 30,000  Level Cleveland Center
Thu 05:30:03 PM 40.3497 -80.1036 288° West 354 407 30,000  Level Cleveland Center
Thu 05:31:03 PM 40.4064 -80.2150 304° West 359 413 30,000  Level Cleveland Center
Thu 05:32:03 PM 40.4650 -80.3294 304° West 369 425 30,000  Level Cleveland Center
Thu 05:33:03 PM 40.5256 -80.4356 307° West 374 430 30,000  Level Cleveland Center
Thu 05:34:03 PM 40.5819 -80.5531 302° West 374 430 30,000  Level Cleveland Center
Thu 05:35:03 PM 40.6383 -80.6733 302° West 374 430 30,000  Level Cleveland Center
Thu 05:36:03 PM 40.7006 -80.7886 305° West 374 430 30,000  Level Cleveland Center
Thu 05:37:03 PM 40.7567 -80.9039 303° West 379 436 30,000  Level Cleveland Center
Thu 05:38:03 PM 40.8167 -81.0219 304° West 379 436 30,000  Level Cleveland Center
Thu 05:39:03 PM 40.8706 -81.1461 300° West 385 443 30,000  Level Cleveland Center
Thu 05:40:03 PM 40.9281 -81.2647 303° West 385 443 30,000  Level Cleveland Center
Thu 05:41:03 PM 40.9878 -81.3864 303° West 385 443 30,000  Level Cleveland Center
Thu 05:42:03 PM 41.0453 -81.5053 303° West 385 443 30,000  Level Cleveland Center
Thu 05:43:03 PM 41.0964 -81.6136 302° West 385 443 30,000  Level Cleveland Center
Thu 05:44:03 PM 41.1619 -81.7414 304° West 390 449 30,000 -300 Level Cleveland Center
Thu 05:45:03 PM 41.2189 -81.8639 302° West 390 449 29,400 -1,300 Descending Cleveland Center
Thu 05:46:03 PM 41.2781 -81.9839 303° West 390 449 27,400 -2,350 Descending Cleveland Center
Thu 05:47:03 PM 41.3369 -82.1097 302° West 395 455 24,700 -2,550 Descending Cleveland Center
Thu 05:48:03 PM 41.3936 -82.2217 304° West 389 448 22,300 -2,250 Descending Cleveland Center
Thu 05:49:03 PM 41.4547 -82.3231 309° West 372 428 20,200 -1,800 Descending Cleveland Center
Thu 05:50:03 PM 41.5178 -82.4272 309° West 356 410 18,700 -1,073 Descending Cleveland Center
Thu 05:51:06 PM 41.5828 -82.5292 310° West 338 389 18,000 -400 Descending Cleveland Center
Thu 05:52:03 PM 41.6081 -82.6328 288° West 339 390 17,900 -568 Descending Cleveland Center
Thu 05:52:20 PM 41.6075 -82.6686 269° West 317 365 17,300 -2,400 Descending Cleveland Center
Thu 05:53:03 PM 41.5975 -82.7517 261° West 317 365 15,500 -1,981 Descending Cleveland Center
Thu 05:54:03 PM 41.6483 -82.8203 315° West 282 325 13,900 -1,823 Descending Cleveland Center
Thu 05:54:22 PM 41.6856 -82.8353 343° North 325 374 13,100 -1,700 Descending Cleveland Center
Thu 05:55:03 PM 41.7267 -82.8703 328° Northwest 283 326 12,200 -1,180 Descending Cleveland Center
Thu 05:55:23 PM 41.7633 -82.9050 325° Northwest 312 359 11,900 -300 Descending Cleveland Center
Thu 05:56:03 PM 41.7961 -82.9367 324° Northwest 301 346 11,900  Level Cleveland Center
Thu 05:56:24 PM 41.8350 -82.9744 324° Northwest 312 359 11,900  Level Cleveland Center
Thu 05:57:03 PM 41.8656 -83.0061 322° Northwest 308 354 11,900  Level Cleveland Center
Thu 05:57:25 PM 41.9025 -83.0383 327° Northwest 308 354 11,900  Level Cleveland Center
Thu 05:58:03 PM 41.9369 -83.0731 323° Northwest 308 354 11,900 214 Level Cleveland Center
Thu 05:58:21 PM 41.9636 -83.0992 324° Northwest 307 353 12,100  Climbing Cleveland Center
Thu 05:59:03 PM 42.0064 -83.1428 323° Northwest 308 354 11,900 -90 Descending Cleveland Center
Thu 05:59:28 PM 42.0431 -83.1836 320° Northwest 308 354 12,000 100 Climbing Cleveland Center
Thu 06:00:03 PM 42.0758 -83.2128 327° Northwest 303 349 12,000  Level Cleveland Center
Thu 06:00:29 PM 42.1044 -83.2308 335° Northwest 238 274 12,000 -700 Level Cleveland Center
Thu 06:01:03 PM 42.1333 -83.2403 346° North 244 281 11,300 -1,574 Descending Cleveland Center
Thu 06:01:30 PM 42.1647 -83.2361 North 219 252 10,400 -1,400 Descending Cleveland Center
Thu 06:02:03 PM 42.1819 -83.2200 35° Northeast 214 246 9,900 -1,672 Descending Cleveland Center
Thu 06:02:31 PM 42.2222 -83.1908 28° Northeast 233 268 8,700 -2,067 Descending Cleveland Center
Thu 06:03:33 PM 42.2814 -83.1511 26° Northeast 228 262 6,800 -1,688 Descending Cleveland Center
Thu 06:04:39 PM 42.3425 -83.1283 15° North 206 237 5,100 -885 Descending Cleveland Center
Thu 06:05:35 PM 42.3600 -83.1797 295° West 162 186 5,000 -667 Descending Cleveland Center
Thu 06:06:36 PM 42.3358 -83.2347 239° Southwest 161 185 3,800 -1,180 Descending Cleveland Center

Login

Don't have an account? Register now (free) for customized features, flight alerts, and more!